createdAt,value
2018-06-25T05:02:02.048Z,95646.08
2018-06-25T05:07:07.500Z,95650.57
2018-06-25T05:12:10.827Z,95655.66
2018-06-25T05:17:14.944Z,95659.28
2018-06-25T05:22:18.274Z,95656.50
2018-06-25T05:27:22.547Z,95659.34
2018-06-25T05:32:25.891Z,95665.30
2018-06-25T05:37:29.229Z,95662.13
2018-06-25T05:42:33.334Z,95667.09
2018-06-25T05:47:36.675Z,95670.29
2018-06-25T05:52:39.998Z,95677.30
2018-06-25T05:57:43.322Z,95678.42
2018-06-25T06:02:46.654Z,95683.05
2018-06-25T06:07:49.992Z,95686.87
2018-06-25T06:12:53.318Z,95692.54
2018-06-25T06:17:56.651Z,95695.33
2018-06-25T06:23:00.746Z,95699.11
2018-06-25T06:28:04.084Z,95695.23
2018-06-25T06:33:07.415Z,95705.84
2018-06-25T06:38:11.507Z,95704.06
2018-06-25T06:43:14.841Z,95708.89
2018-06-25T06:48:18.181Z,95717.89
2018-06-25T06:53:21.523Z,95718.14
2018-06-25T06:58:24.874Z,95720.41
2018-06-25T07:03:28.970Z,95726.72
2018-06-25T07:08:32.295Z,95726.38
2018-06-25T07:13:35.634Z,95723.73
2018-06-25T07:18:38.979Z,95715.48
2018-06-25T07:23:42.302Z,95714.11
2018-06-25T07:28:45.646Z,95712.53
2018-06-25T07:33:48.978Z,95706.50
2018-06-25T07:38:52.306Z,95712.83
2018-06-25T07:43:56.423Z,95714.81
2018-06-25T07:48:59.792Z,95700.41
2018-06-25T07:54:03.319Z,95709.92
2018-06-25T07:59:06.831Z,95714.03
2018-06-25T08:04:10.247Z,95719.20
2018-06-25T08:09:13.573Z,95720.75
2018-06-25T08:14:16.910Z,95723.72
2018-06-25T08:19:20.503Z,95724.08
2018-06-25T08:24:24.119Z,95729.14
2018-06-25T08:29:27.722Z,95733.94
2018-06-25T08:34:31.384Z,95741.06
2018-06-25T08:39:34.767Z,95741.47
2018-06-25T08:44:38.122Z,95746.23
2018-06-25T08:49:42.230Z,95751.87
2018-06-25T08:54:45.739Z,95754.73
2018-06-25T08:59:49.087Z,95756.43
2018-06-25T09:04:53.189Z,95758.29
2018-06-25T09:09:56.772Z,95760.58
2018-06-25T09:15:00.038Z,95764.38
2018-06-25T09:20:04.135Z,95765.13
2018-06-25T09:25:07.471Z,95771.91
2018-06-25T09:30:10.822Z,95773.02
2018-06-25T09:35:14.165Z,95781.79
2018-06-25T09:40:17.503Z,95785.80
2018-06-25T09:45:20.827Z,95788.14
2018-06-25T09:50:24.158Z,95790.27
2018-06-25T09:55:28.255Z,95791.06
2018-06-25T10:00:31.583Z,95796.72
2018-06-25T10:05:34.919Z,95798.17
2018-06-25T10:10:39.222Z,95806.70
2018-06-25T10:15:42.521Z,95803.09
2018-06-25T10:20:45.852Z,95813.92
2018-06-25T10:25:49.180Z,95802.67
2018-06-25T10:30:53.278Z,95803.70
2018-06-25T10:35:56.606Z,95798.86
2018-06-25T10:40:59.951Z,95798.58
2018-06-25T10:46:03.278Z,95792.74
2018-06-25T10:51:06.615Z,95797.78
2018-06-25T10:56:09.943Z,95800.95
2018-06-25T11:01:13.304Z,95805.55
2018-06-25T11:06:17.382Z,95796.89
2018-06-25T11:11:20.711Z,95796.93
2018-06-25T11:16:24.049Z,95803.86
2018-06-25T11:21:28.146Z,95803.30
2018-06-25T11:26:31.480Z,95798.79
2018-06-25T11:31:34.808Z,95807.45
2018-06-25T11:36:38.898Z,95805.75
2018-06-25T11:41:42.283Z,95799.00
2018-06-25T11:46:45.579Z,95797.77
2018-06-25T11:51:48.931Z,95798.07
2018-06-25T11:56:52.241Z,95793.72
2018-06-25T12:01:55.578Z,95796.76
2018-06-25T12:06:59.771Z,95799.98
2018-06-25T12:12:03.112Z,95796.52
2018-06-25T12:17:06.438Z,95795.66
2018-06-25T12:22:09.777Z,95799.27
2018-06-25T12:27:13.117Z,95796.55
2018-06-25T12:32:16.451Z,95806.01
2018-06-25T12:37:19.783Z,95802.91
2018-06-25T12:42:23.126Z,95801.09
2018-06-25T12:47:26.456Z,95807.59
2018-06-25T12:52:29.778Z,95798.88
2018-06-25T12:57:33.107Z,95802.64
2018-06-25T13:02:36.444Z,95801.81
2018-06-25T13:07:39.794Z,95807.23
2018-06-25T13:12:43.126Z,95807.48
2018-06-25T13:17:46.455Z,95800.70
2018-06-25T13:22:49.783Z,95801.98
2018-06-25T13:27:53.109Z,95805.86
2018-06-25T13:32:56.452Z,95805.31
2018-06-25T13:37:59.778Z,95808.66
2018-06-25T13:43:03.118Z,95802.16
2018-06-25T13:48:06.446Z,95794.35
2018-06-25T13:53:09.777Z,95797.87
2018-06-25T13:58:13.106Z,95786.95
2018-06-25T14:03:17.208Z,95800.02
2018-06-25T14:08:20.544Z,95791.72
2018-06-25T14:13:24.642Z,95792.77
2018-06-25T14:18:27.971Z,95794.14
2018-06-25T14:23:31.304Z,95796.83
2018-06-25T14:28:35.394Z,95793.59
2018-06-25T14:33:38.759Z,95793.55
2018-06-25T14:38:42.847Z,95798.05
2018-06-25T14:43:46.175Z,95788.19
2018-06-25T14:48:49.513Z,95793.23
2018-06-25T14:53:52.846Z,95790.81
2018-06-25T14:58:56.173Z,95792.31
2018-06-25T15:03:59.495Z,95787.56
2018-06-25T15:09:02.822Z,95785.20
2018-06-25T15:14:06.158Z,95785.90
2018-06-25T15:19:10.255Z,95785.93
2018-06-25T15:24:13.585Z,95775.20
2018-06-25T15:29:16.928Z,95769.55
2018-06-25T15:34:20.270Z,95770.59
2018-06-25T15:39:23.599Z,95765.73
2018-06-25T15:44:26.943Z,95769.87
2018-06-25T15:49:30.270Z,95763.97
2018-06-25T15:54:33.605Z,95762.03
2018-06-25T15:59:36.933Z,95761.77
2018-06-25T16:04:40.262Z,95757.72
2018-06-25T16:09:43.598Z,95757.29
2018-06-25T16:14:46.933Z,95764.23
2018-06-25T16:19:51.022Z,95762.79
2018-06-25T16:24:54.346Z,95759.41
2018-06-25T16:29:57.671Z,95756.91
2018-06-25T16:35:01.015Z,95758.66
2018-06-25T16:40:04.368Z,95762.30
2018-06-25T16:45:07.716Z,95761.44
2018-06-25T16:50:37.728Z,95750.78
2018-06-25T16:55:41.053Z,95748.17
2018-06-25T17:00:57.282Z,95744.62
2018-06-25T17:06:01.387Z,95746.98
2018-06-25T17:11:09.912Z,95742.59
2018-06-25T17:16:13.246Z,95743.87
2018-06-25T17:21:16.981Z,95740.26
2018-06-25T17:26:20.610Z,95741.34
2018-06-25T17:31:24.286Z,95747.66
2018-06-25T17:36:28.557Z,95742.23
2018-06-25T17:41:31.902Z,95746.21
2018-06-25T17:46:35.235Z,95745.44
2018-06-25T17:51:38.563Z,95745.31
2018-06-25T17:56:41.895Z,95749.32
2018-06-25T18:01:45.232Z,95753.06
2018-06-25T18:06:48.563Z,95757.72
2018-06-25T18:11:51.902Z,95763.26
2018-06-25T18:16:55.233Z,95756.52
2018-06-25T18:21:58.577Z,95760.05
2018-06-25T18:27:02.683Z,95768.67
2018-06-25T18:32:06.279Z,95767.19
2018-06-25T18:37:09.609Z,95765.91
2018-06-25T18:42:12.938Z,95765.78
2018-06-25T18:47:17.057Z,95768.00
2018-06-25T18:52:20.412Z,95783.72
2018-06-25T18:57:23.750Z,95780.95
2018-06-25T19:02:27.099Z,95780.59
2018-06-25T19:07:30.446Z,95781.20
2018-06-25T19:12:34.100Z,95784.95
2018-06-25T19:17:37.619Z,95792.73
2018-06-25T19:22:40.975Z,95795.30
2018-06-25T19:27:44.758Z,95792.72
2018-06-25T19:32:48.090Z,95806.45
2018-06-25T19:37:51.471Z,95803.89
2018-06-25T19:42:55.107Z,95803.70
2018-06-25T19:47:58.546Z,95814.66
2018-06-25T19:53:02.235Z,95820.92
2018-06-25T19:58:05.674Z,95822.22
2018-06-25T20:03:09.056Z,95821.23
2018-06-25T20:08:12.394Z,95825.66
2018-06-25T20:13:15.755Z,95826.56
2018-06-25T20:18:19.079Z,95835.69
2018-06-25T20:23:22.403Z,95836.54
2018-06-25T20:28:25.927Z,95847.75
2018-06-25T20:33:29.284Z,95842.79
2018-06-25T20:38:43.623Z,95845.48
2018-06-25T20:43:46.950Z,95840.36
2018-06-25T20:48:52.194Z,95845.95
2018-06-25T20:53:55.609Z,95845.22
2018-06-25T20:58:58.936Z,95848.00
2018-06-25T21:04:02.267Z,95847.33
2018-06-25T21:09:06.359Z,95843.92
2018-06-25T21:14:09.681Z,95846.86
2018-06-25T21:19:17.082Z,95846.09
2018-06-25T21:24:20.403Z,95844.39
2018-06-25T21:29:23.732Z,95848.01
2018-06-25T21:34:27.062Z,95849.45
2018-06-25T21:45:06.340Z,95842.86
2018-06-25T21:50:20.658Z,95845.23
2018-06-25T21:55:23.985Z,95847.02
2018-06-25T22:00:54.747Z,95848.30
2018-06-25T22:05:58.082Z,95852.78
2018-06-25T22:11:01.423Z,95856.01
2018-06-25T22:16:05.519Z,95858.55
2018-06-25T22:21:08.843Z,95856.63
2018-06-25T22:26:12.173Z,95858.52
